CFG525 GMAD-EDDF
Flight info
| Callsign | CFG525 |
|---|---|
| Flight time | N/A |
| Altitude | 34000 |
| Route | MOGBA3D MOGBA UH300 ESS UR724 IBALU/N0452F360 UR724 OSLAD DCT OBOLO DCT VFA DCT MARIM DCT ALAGU DCT ELVAR DCT BARDI DCT ZMR DCT NUBLO DCT RONSI DCT DELOG DCT PEXOD DCT DIDIG DCT TIRAV DCT ERJAZ DCT PIWIZ DCT TSU UN858 OQQAL DCT RANUX DCT VALEK DCT LUTAX DCT DIK T856 NIVNU T847 IMCOM IMCOM1D |
| Aircraft | A21N/M-SBDE3FGHIJ1J4J7LORVWXYZ/SB2D1G1 |
Departure
| Time | 2026-05-01 12:13 |
|---|---|
| Airport | Al Massira Airport (GMAD) |
Arrival
| Time | N/A |
|---|---|
| Airport | Frankfurt Main Airport (EDDF) |
| Time | Latitude | Longitude | Altitude | Speed | Heading |
|---|---|---|---|---|---|
| 2026-05-01 11:39 | 30.32889 | -9.40950 | 245 ft | 0 kts | 1° |
| 2026-05-01 12:01 | 30.32880 | -9.40951 | 245 ft | 2 kts | 1° |
| 2026-05-01 12:02 | 30.32865 | -9.40951 | 245 ft | 2 kts | 1° |
| 2026-05-01 12:02 | 30.32850 | -9.40951 | 245 ft | 2 kts | 1° |
| 2026-05-01 12:02 | 30.32835 | -9.40951 | 245 ft | 2 kts | 2° |
| 2026-05-01 12:02 | 30.32820 | -9.40957 | 245 ft | 2 kts | 38° |
| 2026-05-01 12:03 | 30.32810 | -9.40970 | 245 ft | 2 kts | 65° |
| 2026-05-01 12:03 | 30.32807 | -9.40987 | 245 ft | 2 kts | 93° |
| 2026-05-01 12:03 | 30.32807 | -9.40998 | 245 ft | 1 kts | 95° |
| 2026-05-01 12:03 | 30.32808 | -9.40999 | 245 ft | 0 kts | 95° |
| 2026-05-01 12:05 | 30.32808 | -9.40998 | 245 ft | 0 kts | 95° |
| 2026-05-01 12:06 | 30.32807 | -9.40993 | 245 ft | 1 kts | 95° |
| 2026-05-01 12:06 | 30.32806 | -9.40981 | 245 ft | 1 kts | 95° |
| 2026-05-01 12:06 | 30.32805 | -9.40961 | 245 ft | 3 kts | 91° |
| 2026-05-01 12:06 | 30.32804 | -9.40923 | 245 ft | 6 kts | 91° |
| 2026-05-01 12:07 | 30.32803 | -9.40858 | 245 ft | 10 kts | 91° |
| 2026-05-01 12:07 | 30.32800 | -9.40755 | 246 ft | 13 kts | 92° |
| 2026-05-01 12:07 | 30.32765 | -9.40674 | 248 ft | 11 kts | 159° |
| 2026-05-01 12:07 | 30.32686 | -9.40670 | 248 ft | 11 kts | 182° |
| 2026-05-01 12:08 | 30.32607 | -9.40673 | 249 ft | 11 kts | 182° |
| 2026-05-01 12:08 | 30.32531 | -9.40677 | 250 ft | 11 kts | 182° |
| 2026-05-01 12:08 | 30.32448 | -9.40649 | 251 ft | 14 kts | 124° |
| 2026-05-01 12:08 | 30.32436 | -9.40518 | 253 ft | 17 kts | 91° |
| 2026-05-01 12:09 | 30.32432 | -9.40368 | 256 ft | 19 kts | 91° |
| 2026-05-01 12:09 | 30.32428 | -9.40211 | 258 ft | 20 kts | 92° |
| 2026-05-01 12:09 | 30.32424 | -9.40053 | 260 ft | 18 kts | 91° |
| 2026-05-01 12:09 | 30.32422 | -9.39913 | 263 ft | 16 kts | 92° |
| 2026-05-01 12:10 | 30.32418 | -9.39791 | 265 ft | 14 kts | 92° |
| 2026-05-01 12:10 | 30.32408 | -9.39585 | 269 ft | 11 kts | 94° |
| 2026-05-01 12:10 | 30.32390 | -9.39510 | 271 ft | 8 kts | 141° |
| 2026-05-01 12:11 | 30.32280 | -9.39501 | 272 ft | 8 kts | 182° |
| 2026-05-01 12:11 | 30.32221 | -9.39504 | 272 ft | 6 kts | 191° |
| 2026-05-01 12:11 | 30.32217 | -9.39535 | 271 ft | 5 kts | 276° |
| 2026-05-01 12:12 | 30.32223 | -9.39590 | 270 ft | 8 kts | 279° |
| 2026-05-01 12:12 | 30.32231 | -9.39803 | 267 ft | 60 kts | 272° |
| 2026-05-01 12:12 | 30.32248 | -9.40563 | 254 ft | 126 kts | 272° |
| 2026-05-01 12:12 | 30.32276 | -9.41810 | 247 ft | 178 kts | 270° |
| 2026-05-01 12:13 | 30.32326 | -9.43279 | 697 ft | 187 kts | 272° |
| 2026-05-01 12:13 | 30.32408 | -9.44770 | 1385 ft | 188 kts | 272° |
| 2026-05-01 12:13 | 30.32499 | -9.46315 | 1932 ft | 199 kts | 273° |
| 2026-05-01 12:13 | 30.32593 | -9.47951 | 2357 ft | 215 kts | 273° |
| 2026-05-01 12:14 | 30.32508 | -9.49734 | 2687 ft | 232 kts | 249° |
| 2026-05-01 12:14 | 30.31565 | -9.51294 | 2932 ft | 243 kts | 223° |
| 2026-05-01 12:14 | 30.30315 | -9.52675 | 3202 ft | 257 kts | 225° |
| 2026-05-01 12:14 | 30.29028 | -9.54170 | 3556 ft | 267 kts | 226° |
| 2026-05-01 12:15 | 30.27717 | -9.55715 | 4082 ft | 270 kts | 229° |
| 2026-05-01 12:15 | 30.26757 | -9.57569 | 4568 ft | 272 kts | 252° |
| 2026-05-01 12:15 | 30.26301 | -9.59695 | 5082 ft | 274 kts | 259° |
| 2026-05-01 12:15 | 30.25931 | -9.61843 | 5581 ft | 277 kts | 259° |
| 2026-05-01 12:16 | 30.25522 | -9.64036 | 6087 ft | 279 kts | 258° |
| 2026-05-01 12:16 | 30.25071 | -9.66238 | 6577 ft | 283 kts | 256° |
| 2026-05-01 12:16 | 30.24609 | -9.68437 | 7096 ft | 285 kts | 259° |
| 2026-05-01 12:16 | 30.24513 | -9.70699 | 7596 ft | 287 kts | 277° |
| 2026-05-01 12:17 | 30.25110 | -9.72911 | 8097 ft | 289 kts | 301° |
| 2026-05-01 12:17 | 30.26464 | -9.74591 | 8586 ft | 290 kts | 327° |
| 2026-05-01 12:17 | 30.28341 | -9.75452 | 9054 ft | 292 kts | 350° |
| 2026-05-01 12:17 | 30.30356 | -9.75826 | 9515 ft | 295 kts | 348° |
| 2026-05-01 12:18 | 30.32347 | -9.76483 | 9935 ft | 299 kts | 340° |
| 2026-05-01 12:18 | 30.34318 | -9.77285 | 10336 ft | 303 kts | 345° |
| 2026-05-01 12:18 | 30.36434 | -9.77653 | 10552 ft | 314 kts | 359° |
| 2026-05-01 12:18 | 30.38648 | -9.77529 | 10776 ft | 326 kts | 4° |
| 2026-05-01 12:19 | 30.40941 | -9.77296 | 10996 ft | 337 kts | 4° |
| 2026-05-01 12:19 | 30.43327 | -9.77054 | 11224 ft | 348 kts | 4° |
| 2026-05-01 12:19 | 30.45754 | -9.76824 | 11593 ft | 354 kts | 3° |
| 2026-05-01 12:19 | 30.48231 | -9.76602 | 12060 ft | 355 kts | 3° |
| 2026-05-01 12:20 | 30.50718 | -9.76387 | 12504 ft | 358 kts | 2° |
| 2026-05-01 12:20 | 30.53184 | -9.76176 | 12928 ft | 360 kts | 2° |
| 2026-05-01 12:20 | 30.55701 | -9.75962 | 13355 ft | 362 kts | 2° |
| 2026-05-01 12:20 | 30.58226 | -9.75746 | 13767 ft | 364 kts | 2° |
| 2026-05-01 12:21 | 30.60747 | -9.75527 | 14180 ft | 367 kts | 2° |
| 2026-05-01 12:21 | 30.63296 | -9.75306 | 14607 ft | 369 kts | 2° |
| 2026-05-01 12:21 | 30.65865 | -9.75083 | 15029 ft | 371 kts | 1° |
| 2026-05-01 12:21 | 30.68466 | -9.74858 | 15441 ft | 373 kts | 1° |
| 2026-05-01 12:22 | 30.71051 | -9.74634 | 15836 ft | 375 kts | 1° |
| 2026-05-01 12:22 | 30.73655 | -9.74408 | 16242 ft | 378 kts | 1° |
| 2026-05-01 12:22 | 30.76282 | -9.74180 | 16655 ft | 380 kts | 1° |
| 2026-05-01 12:22 | 30.78959 | -9.73948 | 17066 ft | 382 kts | 1° |
| 2026-05-01 12:23 | 30.81587 | -9.73721 | 17463 ft | 383 kts | 0° |
| 2026-05-01 12:23 | 30.84264 | -9.73490 | 17858 ft | 386 kts | 0° |
| 2026-05-01 12:23 | 30.86957 | -9.73257 | 18253 ft | 388 kts | 0° |
| 2026-05-01 12:23 | 30.89650 | -9.73023 | 18637 ft | 390 kts | 0° |
| 2026-05-01 12:24 | 30.92383 | -9.72786 | 19023 ft | 393 kts | 0° |
| 2026-05-01 12:24 | 30.95103 | -9.72549 | 19400 ft | 395 kts | 0° |
| 2026-05-01 12:24 | 30.97828 | -9.72313 | 19764 ft | 396 kts | 0° |
| 2026-05-01 12:24 | 31.00619 | -9.72069 | 20123 ft | 399 kts | 360° |
| 2026-05-01 12:25 | 31.03368 | -9.71830 | 20479 ft | 401 kts | 360° |
| 2026-05-01 12:25 | 31.08999 | -9.71350 | 21187 ft | 406 kts | 360° |
| 2026-05-01 12:25 | 31.11804 | -9.71111 | 21523 ft | 408 kts | 359° |
| 2026-05-01 12:26 | 31.14639 | -9.70869 | 21855 ft | 410 kts | 359° |
| 2026-05-01 12:26 | 31.20218 | -9.70393 | 22493 ft | 414 kts | 359° |
| 2026-05-01 12:26 | 31.23100 | -9.70146 | 22813 ft | 416 kts | 359° |
| 2026-05-01 12:27 | 31.26000 | -9.69898 | 23129 ft | 418 kts | 359° |
| 2026-05-01 12:27 | 31.31833 | -9.69398 | 23741 ft | 422 kts | 359° |
| 2026-05-01 12:28 | 31.37703 | -9.68863 | 24326 ft | 427 kts | 1° |
| 2026-05-01 12:28 | 31.40688 | -9.68391 | 24615 ft | 432 kts | 5° |
| 2026-05-01 12:28 | 31.46586 | -9.66886 | 25202 ft | 438 kts | 9° |
| 2026-05-01 12:29 | 31.49568 | -9.66027 | 25494 ft | 439 kts | 9° |
| 2026-05-01 12:29 | 31.52518 | -9.65171 | 25777 ft | 441 kts | 9° |
| 2026-05-01 12:29 | 31.58514 | -9.63439 | 26332 ft | 444 kts | 9° |
| 2026-05-01 12:30 | 31.64516 | -9.61711 | 26856 ft | 447 kts | 9° |
| 2026-05-01 12:30 | 31.67575 | -9.60831 | 27112 ft | 448 kts | 9° |
| 2026-05-01 12:30 | 31.70607 | -9.59959 | 27359 ft | 450 kts | 9° |
| 2026-05-01 12:31 | 31.73654 | -9.59082 | 27602 ft | 452 kts | 9° |
| 2026-05-01 12:31 | 31.76682 | -9.58210 | 27839 ft | 453 kts | 9° |
| 2026-05-01 12:31 | 31.79765 | -9.57321 | 28073 ft | 455 kts | 9° |
| 2026-05-01 12:31 | 31.82861 | -9.56429 | 28309 ft | 456 kts | 9° |
| 2026-05-01 12:32 | 31.85944 | -9.55541 | 28540 ft | 458 kts | 9° |
| 2026-05-01 12:32 | 31.92111 | -9.53761 | 29005 ft | 460 kts | 9° |
| 2026-05-01 12:32 | 31.95243 | -9.52856 | 29245 ft | 462 kts | 9° |
| 2026-05-01 12:33 | 31.98380 | -9.51948 | 29480 ft | 463 kts | 9° |
| 2026-05-01 12:33 | 32.01485 | -9.51050 | 29709 ft | 464 kts | 9° |
| 2026-05-01 12:33 | 32.04628 | -9.50139 | 29941 ft | 466 kts | 9° |
| 2026-05-01 12:33 | 32.07789 | -9.49223 | 30172 ft | 467 kts | 9° |
| 2026-05-01 12:34 | 32.10937 | -9.48309 | 30452 ft | 467 kts | 9° |
| 2026-05-01 12:34 | 32.14097 | -9.47390 | 30767 ft | 465 kts | 9° |
| 2026-05-01 12:34 | 32.17251 | -9.46473 | 31077 ft | 464 kts | 9° |
| 2026-05-01 12:34 | 32.20036 | -9.45663 | 31336 ft | 464 kts | 8° |
| 2026-05-01 12:35 | 32.22260 | -9.45016 | 31538 ft | 463 kts | 8° |
| 2026-05-01 12:35 | 32.25401 | -9.44102 | 31818 ft | 463 kts | 8° |
| 2026-05-01 12:35 | 32.28507 | -9.43197 | 32105 ft | 462 kts | 8° |
| 2026-05-01 12:35 | 32.31651 | -9.42280 | 32398 ft | 462 kts | 8° |
| 2026-05-01 12:36 | 32.34754 | -9.41375 | 32658 ft | 462 kts | 8° |
| 2026-05-01 12:36 | 32.37855 | -9.40470 | 32892 ft | 463 kts | 8° |
| 2026-05-01 12:36 | 32.41017 | -9.39547 | 33116 ft | 464 kts | 8° |
| 2026-05-01 12:36 | 32.44129 | -9.38638 | 33336 ft | 464 kts | 8° |
| 2026-05-01 12:37 | 32.47253 | -9.37724 | 33555 ft | 465 kts | 8° |
| 2026-05-01 12:37 | 32.50397 | -9.36804 | 33771 ft | 465 kts | 8° |
| 2026-05-01 12:37 | 32.53554 | -9.35879 | 33973 ft | 466 kts | 8° |
| 2026-05-01 12:37 | 32.56717 | -9.34952 | 34133 ft | 467 kts | 9° |
| 2026-05-01 12:38 | 32.63014 | -9.33105 | 34203 ft | 468 kts | 9° |
| 2026-05-01 12:38 | 32.69313 | -9.31252 | 34173 ft | 467 kts | 9° |
| 2026-05-01 12:39 | 32.75640 | -9.29389 | 34163 ft | 467 kts | 9° |
| 2026-05-01 12:39 | 32.81893 | -9.27545 | 34120 ft | 467 kts | 9° |
| 2026-05-01 12:40 | 32.87843 | -9.25789 | 34109 ft | 467 kts | 9° |
| 2026-05-01 12:40 | 32.94125 | -9.23932 | 34121 ft | 467 kts | 9° |
| 2026-05-01 12:41 | 33.00326 | -9.22095 | 34126 ft | 467 kts | 9° |
| 2026-05-01 12:41 | 33.06606 | -9.20233 | 34131 ft | 467 kts | 8° |
| 2026-05-01 12:42 | 33.12912 | -9.18359 | 34133 ft | 467 kts | 8° |
| 2026-05-01 12:42 | 33.19231 | -9.16485 | 34131 ft | 467 kts | 8° |
| 2026-05-01 12:43 | 33.25559 | -9.14616 | 34131 ft | 467 kts | 8° |
| 2026-05-01 12:43 | 33.31824 | -9.12761 | 34132 ft | 467 kts | 8° |
| 2026-05-01 12:44 | 33.38139 | -9.10886 | 34133 ft | 467 kts | 8° |
| 2026-05-01 12:45 | 33.50706 | -9.07148 | 34138 ft | 468 kts | 8° |
| 2026-05-01 12:45 | 33.57010 | -9.05268 | 34141 ft | 468 kts | 8° |
| 2026-05-01 12:46 | 33.63120 | -9.03443 | 34142 ft | 468 kts | 8° |
| 2026-05-01 12:46 | 33.69452 | -9.01550 | 34142 ft | 468 kts | 8° |
| 2026-05-01 12:47 | 33.75759 | -8.99664 | 34142 ft | 467 kts | 8° |
| 2026-05-01 12:47 | 33.82053 | -8.97779 | 34141 ft | 467 kts | 8° |
| 2026-05-01 12:48 | 33.88361 | -8.95886 | 34141 ft | 467 kts | 8° |
| 2026-05-01 12:48 | 33.94552 | -8.94024 | 34141 ft | 467 kts | 8° |
| 2026-05-01 12:49 | 34.00851 | -8.92126 | 34141 ft | 467 kts | 8° |
| 2026-05-01 12:49 | 34.06846 | -8.90318 | 34151 ft | 467 kts | 8° |
| 2026-05-01 12:50 | 34.13167 | -8.88408 | 34155 ft | 467 kts | 8° |
| 2026-05-01 12:50 | 34.19475 | -8.86500 | 34143 ft | 467 kts | 8° |
| 2026-05-01 12:51 | 34.25775 | -8.84591 | 34139 ft | 467 kts | 7° |
| 2026-05-01 12:52 | 34.35228 | -8.81722 | 34142 ft | 467 kts | 7° |
| 2026-05-01 12:52 | 34.44514 | -8.78896 | 34145 ft | 467 kts | 7° |
| 2026-05-01 12:53 | 34.53962 | -8.76005 | 34146 ft | 466 kts | 7° |
| 2026-05-01 12:54 | 34.60245 | -8.74075 | 34146 ft | 466 kts | 7° |
| 2026-05-01 12:54 | 34.69685 | -8.71170 | 34147 ft | 466 kts | 7° |
| 2026-05-01 12:55 | 34.79037 | -8.68289 | 34147 ft | 466 kts | 7° |
| 2026-05-01 12:56 | 34.85338 | -8.66342 | 34148 ft | 466 kts | 7° |
| 2026-05-01 12:56 | 34.91505 | -8.64433 | 34149 ft | 466 kts | 7° |
| 2026-05-01 12:57 | 34.97804 | -8.62481 | 34150 ft | 466 kts | 7° |
| 2026-05-01 12:57 | 35.07254 | -8.59547 | 34152 ft | 467 kts | 7° |
| 2026-05-01 12:58 | 35.13523 | -8.57596 | 34152 ft | 467 kts | 7° |
| 2026-05-01 12:59 | 35.22980 | -8.54647 | 34154 ft | 466 kts | 7° |
| 2026-05-01 12:59 | 35.32386 | -8.51707 | 34156 ft | 466 kts | 7° |
| 2026-05-01 13:00 | 35.41828 | -8.48749 | 34158 ft | 466 kts | 7° |
| 2026-05-01 13:01 | 35.51244 | -8.45791 | 34160 ft | 465 kts | 7° |
| 2026-05-01 13:02 | 35.60613 | -8.42841 | 34161 ft | 465 kts | 6° |
| 2026-05-01 13:07 | 36.29162 | -8.21004 | 34168 ft | 464 kts | 7° |
| 2026-05-01 13:08 | 36.35430 | -8.18982 | 34169 ft | 464 kts | 7° |
| 2026-05-01 13:08 | 36.41650 | -8.16973 | 34170 ft | 464 kts | 7° |
| 2026-05-01 13:09 | 36.47776 | -8.14991 | 34368 ft | 465 kts | 7° |
| 2026-05-01 13:09 | 36.50906 | -8.13976 | 34541 ft | 464 kts | 7° |
| 2026-05-01 13:09 | 36.54033 | -8.12962 | 34714 ft | 463 kts | 6° |
| 2026-05-01 13:09 | 36.57141 | -8.11954 | 34902 ft | 463 kts | 6° |
| 2026-05-01 13:10 | 36.60267 | -8.10939 | 35085 ft | 463 kts | 6° |
| 2026-05-01 13:10 | 36.63383 | -8.09926 | 35265 ft | 463 kts | 6° |
| 2026-05-01 13:10 | 36.66526 | -8.08903 | 35449 ft | 463 kts | 6° |
| 2026-05-01 13:10 | 36.69646 | -8.07887 | 35627 ft | 463 kts | 6° |
| 2026-05-01 13:11 | 36.72778 | -8.06865 | 35800 ft | 463 kts | 6° |
| 2026-05-01 13:11 | 36.75867 | -8.05857 | 35962 ft | 463 kts | 6° |
| 2026-05-01 13:11 | 36.79018 | -8.04828 | 36117 ft | 463 kts | 6° |
| 2026-05-01 13:12 | 36.85229 | -8.02795 | 36222 ft | 464 kts | 6° |
| 2026-05-01 13:12 | 36.91483 | -8.00743 | 36223 ft | 463 kts | 6° |
| 2026-05-01 13:13 | 36.97710 | -7.98701 | 36186 ft | 463 kts | 6° |
| 2026-05-01 13:13 | 37.03928 | -7.96658 | 36173 ft | 463 kts | 6° |
| 2026-05-01 13:14 | 37.10191 | -7.94587 | 36167 ft | 462 kts | 6° |
| 2026-05-01 13:14 | 37.16402 | -7.92527 | 36172 ft | 459 kts | 6° |
| 2026-05-01 13:15 | 37.22545 | -7.90489 | 36184 ft | 459 kts | 6° |
| 2026-05-01 13:15 | 37.28711 | -7.88439 | 36190 ft | 459 kts | 6° |
| 2026-05-01 13:16 | 37.34908 | -7.86373 | 36192 ft | 459 kts | 6° |
| 2026-05-01 13:16 | 37.41068 | -7.84316 | 36194 ft | 459 kts | 5° |
| 2026-05-01 13:17 | 37.53392 | -7.80199 | 36189 ft | 460 kts | 5° |
| 2026-05-01 13:18 | 37.62680 | -7.77082 | 36185 ft | 460 kts | 5° |
| 2026-05-01 13:18 | 37.68870 | -7.74999 | 36180 ft | 460 kts | 5° |
| 2026-05-01 13:19 | 37.75031 | -7.72922 | 36172 ft | 460 kts | 5° |
| 2026-05-01 13:20 | 37.84292 | -7.69794 | 36163 ft | 460 kts | 5° |
| 2026-05-01 13:20 | 37.90495 | -7.67694 | 36161 ft | 460 kts | 5° |
| 2026-05-01 13:21 | 37.99765 | -7.64546 | 36161 ft | 460 kts | 5° |
| 2026-05-01 13:21 | 38.05945 | -7.62443 | 36163 ft | 461 kts | 5° |
| 2026-05-01 13:22 | 38.12144 | -7.60335 | 36165 ft | 461 kts | 5° |
| 2026-05-01 13:22 | 38.18345 | -7.58226 | 36165 ft | 461 kts | 5° |
| 2026-05-01 13:23 | 38.24531 | -7.56115 | 36164 ft | 461 kts | 6° |
| 2026-05-01 13:23 | 38.30727 | -7.53996 | 36163 ft | 461 kts | 6° |
| 2026-05-01 13:24 | 38.36887 | -7.51885 | 36163 ft | 461 kts | 6° |
| 2026-05-01 13:25 | 38.46196 | -7.48689 | 36165 ft | 461 kts | 6° |
| 2026-05-01 13:25 | 38.52352 | -7.46571 | 36167 ft | 461 kts | 6° |
| 2026-05-01 13:26 | 38.58537 | -7.44439 | 36167 ft | 461 kts | 6° |
| 2026-05-01 13:26 | 38.64737 | -7.42297 | 36164 ft | 460 kts | 6° |
| 2026-05-01 13:27 | 38.70905 | -7.40163 | 36163 ft | 460 kts | 7° |
| 2026-05-01 13:27 | 38.80175 | -7.36947 | 36162 ft | 460 kts | 7° |
| 2026-05-01 13:28 | 38.89314 | -7.33768 | 36160 ft | 461 kts | 8° |
| 2026-05-01 13:29 | 39.01683 | -7.29449 | 36163 ft | 461 kts | 8° |
| 2026-05-01 13:31 | 39.20205 | -7.22770 | 36182 ft | 464 kts | 13° |
| 2026-05-01 13:32 | 39.34895 | -7.13821 | 36178 ft | 471 kts | 22° |
| 2026-05-01 13:33 | 39.49422 | -7.04136 | 36167 ft | 471 kts | 22° |
| 2026-05-01 13:34 | 39.61077 | -6.96354 | 36160 ft | 470 kts | 22° |
| 2026-05-01 13:35 | 39.69755 | -6.90543 | 36158 ft | 470 kts | 22° |
| 2026-05-01 13:36 | 39.78453 | -6.84702 | 36157 ft | 469 kts | 22° |
| 2026-05-01 13:36 | 39.87103 | -6.78877 | 36160 ft | 469 kts | 23° |
| 2026-05-01 13:37 | 39.92888 | -6.74972 | 36162 ft | 469 kts | 23° |
| 2026-05-01 13:37 | 39.98688 | -6.71050 | 36163 ft | 469 kts | 23° |
| 2026-05-01 13:38 | 40.07367 | -6.65166 | 36179 ft | 469 kts | 23° |
| 2026-05-01 13:39 | 40.13162 | -6.61234 | 36170 ft | 469 kts | 24° |
| 2026-05-01 13:39 | 40.18938 | -6.57305 | 36088 ft | 469 kts | 24° |
| 2026-05-01 13:40 | 40.24684 | -6.53378 | 36070 ft | 468 kts | 24° |
| 2026-05-01 13:40 | 40.30482 | -6.49409 | 36155 ft | 469 kts | 24° |
| 2026-05-01 13:41 | 40.36240 | -6.45464 | 36193 ft | 469 kts | 24° |
| 2026-05-01 13:41 | 40.41988 | -6.41519 | 36193 ft | 469 kts | 24° |
| 2026-05-01 13:42 | 40.47787 | -6.37533 | 36188 ft | 468 kts | 24° |
| 2026-05-01 13:42 | 40.53564 | -6.33554 | 36179 ft | 468 kts | 25° |
| 2026-05-01 13:43 | 40.59314 | -6.29584 | 36173 ft | 469 kts | 25° |
| 2026-05-01 13:43 | 40.65068 | -6.25619 | 36172 ft | 469 kts | 25° |
| 2026-05-01 13:44 | 40.70837 | -6.21635 | 36171 ft | 469 kts | 25° |
| 2026-05-01 13:44 | 40.76609 | -6.17642 | 36172 ft | 469 kts | 25° |
| 2026-05-01 13:45 | 40.82392 | -6.13633 | 36175 ft | 469 kts | 25° |
| 2026-05-01 13:45 | 40.88173 | -6.09615 | 36177 ft | 470 kts | 25° |
| 2026-05-01 13:46 | 40.93924 | -6.05611 | 36179 ft | 470 kts | 25° |
| 2026-05-01 13:46 | 40.99697 | -6.01582 | 36179 ft | 470 kts | 25° |
| 2026-05-01 13:47 | 41.05476 | -5.97542 | 36178 ft | 470 kts | 26° |
| 2026-05-01 13:47 | 41.11260 | -5.93489 | 36178 ft | 470 kts | 26° |
| 2026-05-01 13:48 | 41.17008 | -5.89452 | 36179 ft | 468 kts | 26° |
| 2026-05-01 13:48 | 41.22767 | -5.85401 | 36179 ft | 467 kts | 26° |
| 2026-05-01 13:49 | 41.28489 | -5.81366 | 36178 ft | 467 kts | 26° |
| 2026-05-01 13:49 | 41.34188 | -5.77340 | 36173 ft | 467 kts | 26° |
| 2026-05-01 13:50 | 41.39922 | -5.73281 | 36166 ft | 467 kts | 26° |
| 2026-05-01 13:50 | 41.45647 | -5.69218 | 36158 ft | 467 kts | 26° |
| 2026-05-01 13:51 | 41.51363 | -5.65161 | 36150 ft | 467 kts | 25° |
| 2026-05-01 13:51 | 41.57139 | -5.61623 | 36148 ft | 466 kts | 21° |
| 2026-05-01 13:52 | 41.63089 | -5.58287 | 36149 ft | 466 kts | 21° |
| 2026-05-01 13:52 | 41.69055 | -5.54939 | 36152 ft | 466 kts | 21° |
| 2026-05-01 13:53 | 41.75038 | -5.51563 | 36155 ft | 466 kts | 21° |
| 2026-05-01 13:53 | 41.83974 | -5.46501 | 36156 ft | 466 kts | 21° |
| 2026-05-01 13:54 | 41.89959 | -5.43099 | 36155 ft | 466 kts | 21° |
| 2026-05-01 13:54 | 41.95937 | -5.39696 | 36154 ft | 466 kts | 21° |
| 2026-05-01 13:55 | 42.01879 | -5.36299 | 36156 ft | 466 kts | 21° |
| 2026-05-01 13:55 | 42.07863 | -5.32875 | 36160 ft | 466 kts | 21° |
| 2026-05-01 13:56 | 42.13827 | -5.29456 | 36162 ft | 466 kts | 22° |
| 2026-05-01 13:56 | 42.19800 | -5.26026 | 36160 ft | 466 kts | 22° |
| 2026-05-01 13:57 | 42.25737 | -5.22609 | 36157 ft | 465 kts | 22° |
| 2026-05-01 13:57 | 42.31676 | -5.19182 | 36155 ft | 464 kts | 21° |
| 2026-05-01 13:58 | 42.37600 | -5.15759 | 36158 ft | 464 kts | 21° |
| 2026-05-01 13:58 | 42.43511 | -5.12338 | 36162 ft | 464 kts | 21° |
| 2026-05-01 13:59 | 42.49430 | -5.08904 | 36164 ft | 463 kts | 21° |
| 2026-05-01 13:59 | 42.55332 | -5.05472 | 36165 ft | 462 kts | 21° |
| 2026-05-01 14:00 | 42.61241 | -5.02028 | 36167 ft | 462 kts | 21° |
| 2026-05-01 14:00 | 42.67141 | -4.98583 | 36168 ft | 462 kts | 21° |
| 2026-05-01 14:01 | 42.73031 | -4.95141 | 36171 ft | 461 kts | 21° |
| 2026-05-01 14:01 | 42.78903 | -4.91699 | 36177 ft | 461 kts | 21° |
| 2026-05-01 14:02 | 42.84783 | -4.88244 | 36191 ft | 461 kts | 21° |
| 2026-05-01 14:02 | 42.90672 | -4.84776 | 36214 ft | 460 kts | 21° |
| 2026-05-01 14:03 | 42.96534 | -4.81317 | 36244 ft | 460 kts | 21° |
| 2026-05-01 14:03 | 43.02413 | -4.77841 | 36281 ft | 460 kts | 21° |
| 2026-05-01 14:04 | 43.08258 | -4.74377 | 36283 ft | 459 kts | 21° |
| 2026-05-01 14:04 | 43.14103 | -4.70907 | 36166 ft | 459 kts | 21° |
| 2026-05-01 14:05 | 43.17019 | -4.69173 | 36023 ft | 459 kts | 21° |
| 2026-05-01 14:05 | 43.19943 | -4.67433 | 35869 ft | 459 kts | 21° |
| 2026-05-01 14:05 | 43.25788 | -4.63946 | 35837 ft | 458 kts | 21° |
| 2026-05-01 14:06 | 43.28679 | -4.62218 | 35955 ft | 457 kts | 21° |
| 2026-05-01 14:06 | 43.31609 | -4.60466 | 36046 ft | 458 kts | 21° |
| 2026-05-01 14:06 | 43.37434 | -4.56978 | 36154 ft | 458 kts | 21° |
| 2026-05-01 14:07 | 43.43260 | -4.53480 | 36185 ft | 457 kts | 21° |
| 2026-05-01 14:08 | 43.51997 | -4.48225 | 36149 ft | 456 kts | 21° |
| 2026-05-01 14:08 | 43.57804 | -4.44725 | 36137 ft | 456 kts | 21° |
| 2026-05-01 14:09 | 43.63410 | -4.41336 | 36129 ft | 455 kts | 21° |
| 2026-05-01 14:09 | 43.69155 | -4.37857 | 36126 ft | 455 kts | 21° |
| 2026-05-01 14:10 | 43.74867 | -4.34391 | 36127 ft | 454 kts | 22° |
| 2026-05-01 14:10 | 43.80615 | -4.30894 | 36128 ft | 454 kts | 22° |
| 2026-05-01 14:11 | 43.86409 | -4.27362 | 36129 ft | 453 kts | 22° |
| 2026-05-01 14:11 | 43.95037 | -4.22089 | 36130 ft | 453 kts | 22° |
| 2026-05-01 14:12 | 44.00690 | -4.18625 | 36131 ft | 452 kts | 22° |
| 2026-05-01 14:12 | 44.06333 | -4.15159 | 36131 ft | 452 kts | 22° |
| 2026-05-01 14:13 | 44.11122 | -4.12212 | 36132 ft | 452 kts | 22° |
| 2026-05-01 14:13 | 44.17832 | -4.08074 | 36133 ft | 451 kts | 22° |
| 2026-05-01 14:14 | 44.23546 | -4.04542 | 36135 ft | 451 kts | 22° |
| 2026-05-01 14:14 | 44.29191 | -4.01029 | 36136 ft | 452 kts | 23° |
| 2026-05-01 14:15 | 44.34727 | -3.96890 | 36137 ft | 454 kts | 30° |
| 2026-05-01 14:15 | 44.39967 | -3.92009 | 36139 ft | 455 kts | 33° |
| 2026-05-01 14:16 | 44.45177 | -3.86955 | 36140 ft | 455 kts | 33° |
| 2026-05-01 14:16 | 44.50369 | -3.81920 | 36141 ft | 455 kts | 33° |
| 2026-05-01 14:17 | 44.55541 | -3.76901 | 36143 ft | 455 kts | 33° |
| 2026-05-01 14:17 | 44.60741 | -3.71848 | 36142 ft | 455 kts | 33° |
| 2026-05-01 14:18 | 44.65916 | -3.66811 | 36139 ft | 456 kts | 33° |
| 2026-05-01 14:18 | 44.70149 | -3.62685 | 36135 ft | 456 kts | 33° |
| 2026-05-01 14:19 | 44.76236 | -3.56739 | 36135 ft | 456 kts | 33° |
| 2026-05-01 14:19 | 44.81458 | -3.51624 | 36136 ft | 457 kts | 33° |
| 2026-05-01 14:20 | 44.89263 | -3.43957 | 36139 ft | 458 kts | 33° |
| 2026-05-01 14:21 | 44.94453 | -3.38844 | 36141 ft | 458 kts | 33° |
| 2026-05-01 14:21 | 44.99705 | -3.33660 | 36142 ft | 459 kts | 34° |
| 2026-05-01 14:22 | 45.07509 | -3.25933 | 36146 ft | 459 kts | 34° |
| 2026-05-01 14:22 | 45.12749 | -3.20729 | 36149 ft | 460 kts | 34° |
| 2026-05-01 14:23 | 45.17968 | -3.15535 | 36151 ft | 460 kts | 34° |
| 2026-05-01 14:23 | 45.23192 | -3.10324 | 36154 ft | 460 kts | 34° |
| 2026-05-01 14:24 | 45.28409 | -3.05104 | 36156 ft | 460 kts | 34° |
| 2026-05-01 14:24 | 45.33505 | -2.99978 | 36160 ft | 460 kts | 35° |
| 2026-05-01 14:25 | 45.38599 | -2.94733 | 36166 ft | 461 kts | 35° |
| 2026-05-01 14:25 | 45.43772 | -2.89383 | 36173 ft | 461 kts | 35° |
| 2026-05-01 14:26 | 45.51548 | -2.81328 | 36178 ft | 461 kts | 35° |
| 2026-05-01 14:27 | 45.56690 | -2.75988 | 36180 ft | 461 kts | 35° |
| 2026-05-01 14:27 | 45.61865 | -2.70603 | 36181 ft | 462 kts | 35° |
| 2026-05-01 14:28 | 45.69635 | -2.62493 | 36183 ft | 462 kts | 35° |
| 2026-05-01 14:28 | 45.74622 | -2.57274 | 36185 ft | 462 kts | 35° |
| 2026-05-01 14:29 | 45.79787 | -2.51855 | 36186 ft | 462 kts | 35° |
| 2026-05-01 14:30 | 45.90015 | -2.41085 | 36189 ft | 462 kts | 35° |
| 2026-05-01 14:31 | 45.97796 | -2.32858 | 36190 ft | 463 kts | 36° |
| 2026-05-01 14:31 | 46.02947 | -2.27307 | 36190 ft | 464 kts | 39° |
| 2026-05-01 14:32 | 46.07730 | -2.21093 | 36195 ft | 464 kts | 46° |
| 2026-05-01 14:32 | 46.12056 | -2.14452 | 36200 ft | 464 kts | 47° |
| 2026-05-01 14:33 | 46.16427 | -2.07611 | 36207 ft | 464 kts | 47° |
| 2026-05-01 14:33 | 46.20781 | -2.00807 | 36211 ft | 464 kts | 47° |
| 2026-05-01 14:34 | 46.25148 | -1.93979 | 36211 ft | 464 kts | 47° |
| 2026-05-01 14:34 | 46.29515 | -1.87140 | 36207 ft | 464 kts | 47° |
| 2026-05-01 14:35 | 46.33879 | -1.80288 | 36204 ft | 464 kts | 47° |
| 2026-05-01 14:35 | 46.38248 | -1.73412 | 36204 ft | 464 kts | 47° |
| 2026-05-01 14:36 | 46.42593 | -1.66558 | 36205 ft | 464 kts | 47° |
| 2026-05-01 14:36 | 46.46926 | -1.59704 | 36208 ft | 463 kts | 47° |
| 2026-05-01 14:37 | 46.51267 | -1.52818 | 36210 ft | 463 kts | 47° |
| 2026-05-01 14:37 | 46.55581 | -1.45957 | 36213 ft | 462 kts | 47° |
| 2026-05-01 14:38 | 46.59889 | -1.39089 | 36215 ft | 462 kts | 47° |
| 2026-05-01 14:38 | 46.64197 | -1.32172 | 36216 ft | 462 kts | 48° |
| 2026-05-01 14:39 | 46.68475 | -1.25272 | 36219 ft | 462 kts | 48° |
| 2026-05-01 14:39 | 46.72781 | -1.18308 | 36222 ft | 461 kts | 48° |
| 2026-05-01 14:40 | 46.77054 | -1.11382 | 36224 ft | 461 kts | 48° |
| 2026-05-01 14:40 | 46.81307 | -1.04471 | 36224 ft | 460 kts | 48° |
| 2026-05-01 14:41 | 46.85571 | -0.97524 | 36222 ft | 460 kts | 48° |
| 2026-05-01 14:41 | 46.89831 | -0.90568 | 36222 ft | 460 kts | 48° |
| 2026-05-01 14:42 | 46.94076 | -0.83619 | 36223 ft | 459 kts | 48° |
| 2026-05-01 14:42 | 46.98305 | -0.76681 | 36223 ft | 459 kts | 48° |
| 2026-05-01 14:43 | 47.02532 | -0.69725 | 36223 ft | 459 kts | 47° |
| 2026-05-01 14:43 | 47.06760 | -0.62748 | 36222 ft | 459 kts | 48° |
| 2026-05-01 14:44 | 47.10966 | -0.55787 | 36219 ft | 459 kts | 48° |
| 2026-05-01 14:44 | 47.17303 | -0.45265 | 36215 ft | 458 kts | 47° |
| 2026-05-01 14:45 | 47.23636 | -0.34757 | 36213 ft | 458 kts | 47° |
| 2026-05-01 14:46 | 47.28126 | -0.28127 | 36213 ft | 458 kts | 44° |
| 2026-05-01 14:46 | 47.34919 | -0.18364 | 36211 ft | 457 kts | 44° |
| 2026-05-01 14:47 | 47.39452 | -0.11815 | 36209 ft | 457 kts | 44° |
| 2026-05-01 14:48 | 47.46257 | -0.01939 | 36206 ft | 457 kts | 44° |
| 2026-05-01 14:48 | 47.53027 | 0.07924 | 36164 ft | 457 kts | 44° |
| 2026-05-01 14:49 | 47.62074 | 0.21161 | 36178 ft | 460 kts | 45° |
| 2026-05-01 14:50 | 47.71099 | 0.34443 | 36207 ft | 457 kts | 46° |
| 2026-05-01 14:51 | 47.77834 | 0.44404 | 36208 ft | 457 kts | 46° |
| 2026-05-01 14:52 | 47.84594 | 0.54438 | 36209 ft | 457 kts | 46° |
| 2026-05-01 14:53 | 47.91318 | 0.64454 | 36216 ft | 457 kts | 46° |
| 2026-05-01 14:53 | 47.95797 | 0.71146 | 36219 ft | 456 kts | 46° |
| 2026-05-01 14:54 | 48.00264 | 0.77834 | 36224 ft | 457 kts | 46° |
| 2026-05-01 14:54 | 48.04721 | 0.84527 | 36231 ft | 457 kts | 46° |
| 2026-05-01 14:55 | 48.09189 | 0.91253 | 36249 ft | 456 kts | 47° |
| 2026-05-01 14:55 | 48.13621 | 0.97942 | 36247 ft | 455 kts | 47° |
| 2026-05-01 14:56 | 48.18053 | 1.04663 | 36240 ft | 454 kts | 47° |
| 2026-05-01 14:56 | 48.22383 | 1.11527 | 36232 ft | 453 kts | 52° |
| 2026-05-01 14:57 | 48.26400 | 1.18807 | 36224 ft | 452 kts | 53° |
| 2026-05-01 14:57 | 48.32332 | 1.29746 | 36221 ft | 452 kts | 53° |
| 2026-05-01 14:58 | 48.36208 | 1.36902 | 36222 ft | 452 kts | 53° |
| 2026-05-01 14:58 | 48.40179 | 1.44247 | 36220 ft | 452 kts | 53° |
| 2026-05-01 14:59 | 48.44111 | 1.51535 | 36218 ft | 452 kts | 53° |
| 2026-05-01 14:59 | 48.48046 | 1.58852 | 36215 ft | 451 kts | 53° |
| 2026-05-01 15:00 | 48.53962 | 1.69884 | 36215 ft | 451 kts | 54° |
| 2026-05-01 15:01 | 48.57887 | 1.77231 | 36215 ft | 450 kts | 54° |
| 2026-05-01 15:01 | 48.61810 | 1.84597 | 36217 ft | 451 kts | 54° |
| 2026-05-01 15:02 | 48.65723 | 1.91967 | 36218 ft | 451 kts | 54° |
| 2026-05-01 15:02 | 48.69625 | 1.99342 | 36220 ft | 451 kts | 55° |
| 2026-05-01 15:03 | 48.73147 | 2.07152 | 36221 ft | 447 kts | 63° |
| 2026-05-01 15:03 | 48.75924 | 2.15524 | 36225 ft | 444 kts | 70° |
| 2026-05-01 15:04 | 48.77932 | 2.24310 | 36239 ft | 440 kts | 77° |
| 2026-05-01 15:04 | 48.79527 | 2.33206 | 36229 ft | 440 kts | 77° |
| 2026-05-01 15:05 | 48.81123 | 2.42217 | 36182 ft | 443 kts | 77° |
| 2026-05-01 15:05 | 48.82725 | 2.51228 | 36178 ft | 448 kts | 76° |
| 2026-05-01 15:06 | 48.84348 | 2.60353 | 36213 ft | 449 kts | 76° |
| 2026-05-01 15:06 | 48.85974 | 2.69546 | 36218 ft | 449 kts | 77° |
| 2026-05-01 15:07 | 48.87579 | 2.78667 | 36216 ft | 449 kts | 77° |
| 2026-05-01 15:07 | 48.89160 | 2.87731 | 36214 ft | 448 kts | 77° |
| 2026-05-01 15:08 | 48.90749 | 2.96890 | 36210 ft | 447 kts | 77° |
| 2026-05-01 15:08 | 48.92327 | 3.06036 | 36210 ft | 447 kts | 77° |
| 2026-05-01 15:09 | 48.93888 | 3.15129 | 36212 ft | 447 kts | 77° |
| 2026-05-01 15:09 | 48.95446 | 3.24256 | 36214 ft | 446 kts | 77° |
| 2026-05-01 15:10 | 48.96992 | 3.33344 | 36216 ft | 446 kts | 77° |
| 2026-05-01 15:10 | 48.99292 | 3.47039 | 36222 ft | 446 kts | 77° |
| 2026-05-01 15:11 | 49.01579 | 3.60716 | 36227 ft | 446 kts | 77° |
| 2026-05-01 15:12 | 49.03096 | 3.69847 | 36231 ft | 446 kts | 78° |
| 2026-05-01 15:12 | 49.05359 | 3.83548 | 36233 ft | 445 kts | 78° |
| 2026-05-01 15:14 | 49.09081 | 4.06324 | 36230 ft | 445 kts | 78° |
| 2026-05-01 15:14 | 49.11264 | 4.19835 | 36231 ft | 445 kts | 78° |
| 2026-05-01 15:15 | 49.14472 | 4.38068 | 36229 ft | 446 kts | 72° |
| 2026-05-01 15:16 | 49.19138 | 4.55574 | 36229 ft | 447 kts | 68° |
| 2026-05-01 15:18 | 49.25035 | 4.77425 | 36218 ft | 446 kts | 69° |
| 2026-05-01 15:19 | 49.29729 | 4.95001 | 36223 ft | 447 kts | 69° |
| 2026-05-01 15:19 | 49.33215 | 5.08141 | 36229 ft | 447 kts | 69° |
| 2026-05-01 15:20 | 49.36700 | 5.21351 | 36237 ft | 447 kts | 69° |
| 2026-05-01 15:21 | 49.39022 | 5.30197 | 36241 ft | 447 kts | 69° |
| 2026-05-01 15:21 | 49.41342 | 5.39066 | 36243 ft | 447 kts | 69° |
| 2026-05-01 15:22 | 49.44783 | 5.52289 | 36248 ft | 447 kts | 69° |
| 2026-05-01 15:22 | 49.47086 | 5.61185 | 36255 ft | 448 kts | 68° |
| 2026-05-01 15:23 | 49.49615 | 5.69873 | 36265 ft | 448 kts | 61° |
| 2026-05-01 15:23 | 49.53192 | 5.77745 | 36278 ft | 448 kts | 49° |
| 2026-05-01 15:24 | 49.57678 | 5.84204 | 36284 ft | 448 kts | 37° |
| 2026-05-01 15:24 | 49.60156 | 5.87181 | 36128 ft | 450 kts | 43° |
| 2026-05-01 15:24 | 49.62220 | 5.90813 | 35596 ft | 454 kts | 54° |
| 2026-05-01 15:25 | 49.63836 | 5.94940 | 35001 ft | 455 kts | 63° |
| 2026-05-01 15:25 | 49.65055 | 5.99366 | 34293 ft | 453 kts | 70° |
| 2026-05-01 15:25 | 49.66124 | 6.03938 | 33224 ft | 454 kts | 71° |
| 2026-05-01 15:25 | 49.67171 | 6.08525 | 32193 ft | 450 kts | 70° |
| 2026-05-01 15:26 | 49.68220 | 6.13084 | 31467 ft | 455 kts | 70° |
| 2026-05-01 15:26 | 49.69287 | 6.17671 | 30762 ft | 450 kts | 70° |
| 2026-05-01 15:26 | 49.70341 | 6.22166 | 30097 ft | 446 kts | 70° |
| 2026-05-01 15:26 | 49.71393 | 6.26634 | 29534 ft | 440 kts | 70° |
| 2026-05-01 15:27 | 49.72435 | 6.31045 | 29091 ft | 436 kts | 69° |
| 2026-05-01 15:27 | 49.73477 | 6.35461 | 28648 ft | 433 kts | 69° |
| 2026-05-01 15:27 | 49.74504 | 6.39816 | 28249 ft | 430 kts | 69° |
| 2026-05-01 15:28 | 49.76521 | 6.48379 | 27461 ft | 424 kts | 70° |
| 2026-05-01 15:28 | 49.77531 | 6.52682 | 27018 ft | 421 kts | 70° |
| 2026-05-01 15:28 | 49.78519 | 6.56897 | 26571 ft | 418 kts | 70° |
| 2026-05-01 15:29 | 49.80475 | 6.65269 | 25667 ft | 411 kts | 71° |
| 2026-05-01 15:29 | 49.81437 | 6.69400 | 25202 ft | 408 kts | 71° |
| 2026-05-01 15:29 | 49.83338 | 6.77584 | 24269 ft | 400 kts | 71° |
| 2026-05-01 15:30 | 49.85189 | 6.85581 | 23364 ft | 395 kts | 71° |
| 2026-05-01 15:31 | 49.88818 | 7.01352 | 21567 ft | 383 kts | 71° |
| 2026-05-01 15:31 | 49.90569 | 7.08995 | 20677 ft | 376 kts | 71° |
| 2026-05-01 15:32 | 49.92297 | 7.16569 | 19791 ft | 371 kts | 71° |
| 2026-05-01 15:32 | 49.93997 | 7.24051 | 18896 ft | 365 kts | 71° |
| 2026-05-01 15:33 | 49.96484 | 7.35012 | 17586 ft | 357 kts | 71° |
| 2026-05-01 15:34 | 49.98910 | 7.45774 | 16271 ft | 349 kts | 71° |